sensor_id;sensor_type;location;lat;lon;timestamp;P1;durP1;ratioP1;P2;durP2;ratioP2
43933;SDS011;59081;42.706;23.306;2023-05-23T00:00:18;15.70;;;10.68;;
43933;SDS011;59081;42.706;23.306;2023-05-23T00:02:47;11.77;;;8.85;;
43933;SDS011;59081;42.706;23.306;2023-05-23T00:05:13;11.68;;;8.85;;
43933;SDS011;59081;42.706;23.306;2023-05-23T00:07:51;10.73;;;8.55;;
43933;SDS011;59081;42.706;23.306;2023-05-23T00:10:17;14.23;;;9.75;;
43933;SDS011;59081;42.706;23.306;2023-05-23T00:12:56;15.30;;;10.85;;
43933;SDS011;59081;42.706;23.306;2023-05-23T00:15:26;13.75;;;10.25;;
43933;SDS011;59081;42.706;23.306;2023-05-23T00:17:55;11.73;;;9.43;;
43933;SDS011;59081;42.706;23.306;2023-05-23T00:20:27;13.13;;;10.35;;
43933;SDS011;59081;42.706;23.306;2023-05-23T00:22:54;16.33;;;10.88;;
43933;SDS011;59081;42.706;23.306;2023-05-23T00:25:23;13.73;;;10.00;;
43933;SDS011;59081;42.706;23.306;2023-05-23T00:27:49;14.65;;;10.15;;
43933;SDS011;59081;42.706;23.306;2023-05-23T00:30:15;13.05;;;9.55;;
43933;SDS011;59081;42.706;23.306;2023-05-23T00:35:12;15.32;;;8.80;;
43933;SDS011;59081;42.706;23.306;2023-05-23T00:38:01;11.68;;;8.73;;
43933;SDS011;59081;42.706;23.306;2023-05-23T00:40:27;11.82;;;7.95;;
43933;SDS011;59081;42.706;23.306;2023-05-23T00:42:55;10.40;;;7.63;;
43933;SDS011;59081;42.706;23.306;2023-05-23T00:45:24;9.52;;;7.68;;
43933;SDS011;59081;42.706;23.306;2023-05-23T00:47:52;10.73;;;7.68;;
43933;SDS011;59081;42.706;23.306;2023-05-23T00:50:23;9.55;;;8.07;;
43933;SDS011;59081;42.706;23.306;2023-05-23T00:52:53;12.80;;;8.80;;
43933;SDS011;59081;42.706;23.306;2023-05-23T00:55:20;13.75;;;8.88;;
43933;SDS011;59081;42.706;23.306;2023-05-23T00:57:47;11.98;;;8.65;;
43933;SDS011;59081;42.706;23.306;2023-05-23T01:00:15;12.55;;;9.18;;
43933;SDS011;59081;42.706;23.306;2023-05-23T01:02:47;10.82;;;8.55;;
43933;SDS011;59081;42.706;23.306;2023-05-23T01:05:15;12.38;;;9.85;;
43933;SDS011;59081;42.706;23.306;2023-05-23T01:07:47;11.23;;;8.60;;
43933;SDS011;59081;42.706;23.306;2023-05-23T01:10:14;12.43;;;9.73;;
43933;SDS011;59081;42.706;23.306;2023-05-23T01:15:17;12.15;;;8.85;;
43933;SDS011;59081;42.706;23.306;2023-05-23T01:17:51;11.18;;;8.90;;
43933;SDS011;59081;42.706;23.306;2023-05-23T01:20:47;12.52;;;9.40;;
43933;SDS011;59081;42.706;23.306;2023-05-23T01:23:54;13.40;;;9.82;;
43933;SDS011;59081;42.706;23.306;2023-05-23T01:29:12;16.27;;;9.07;;
43933;SDS011;59081;42.706;23.306;2023-05-23T01:34:26;11.70;;;8.18;;
43933;SDS011;59081;42.706;23.306;2023-05-23T01:36:54;12.73;;;8.57;;
43933;SDS011;59081;42.706;23.306;2023-05-23T01:39:26;11.77;;;9.80;;
43933;SDS011;59081;42.706;23.306;2023-05-23T01:41:52;15.73;;;10.20;;
43933;SDS011;59081;42.706;23.306;2023-05-23T01:44:19;12.20;;;9.30;;
43933;SDS011;59081;42.706;23.306;2023-05-23T01:49:18;18.02;;;9.20;;
43933;SDS011;59081;42.706;23.306;2023-05-23T01:51:46;22.98;;;10.80;;
43933;SDS011;59081;42.706;23.306;2023-05-23T01:54:15;14.73;;;10.02;;
43933;SDS011;59081;42.706;23.306;2023-05-23T01:56:43;15.20;;;9.52;;
43933;SDS011;59081;42.706;23.306;2023-05-23T01:59:15;15.77;;;9.52;;
43933;SDS011;59081;42.706;23.306;2023-05-23T02:01:41;12.70;;;8.95;;
43933;SDS011;59081;42.706;23.306;2023-05-23T02:04:10;12.70;;;9.20;;
43933;SDS011;59081;42.706;23.306;2023-05-23T02:06:36;13.30;;;10.20;;
43933;SDS011;59081;42.706;23.306;2023-05-23T02:09:08;12.13;;;9.63;;
43933;SDS011;59081;42.706;23.306;2023-05-23T02:11:39;13.23;;;10.18;;
43933;SDS011;59081;42.706;23.306;2023-05-23T02:14:08;15.65;;;10.25;;
43933;SDS011;59081;42.706;23.306;2023-05-23T02:16:38;15.60;;;10.38;;
43933;SDS011;59081;42.706;23.306;2023-05-23T02:19:09;14.13;;;10.18;;
43933;SDS011;59081;42.706;23.306;2023-05-23T02:21:34;16.05;;;9.23;;
43933;SDS011;59081;42.706;23.306;2023-05-23T02:24:00;12.75;;;8.98;;
43933;SDS011;59081;42.706;23.306;2023-05-23T02:26:28;12.25;;;9.18;;
43933;SDS011;59081;42.706;23.306;2023-05-23T02:28:54;14.50;;;9.85;;
43933;SDS011;59081;42.706;23.306;2023-05-23T02:31:25;12.68;;;10.25;;
43933;SDS011;59081;42.706;23.306;2023-05-23T02:34:00;12.55;;;10.35;;
43933;SDS011;59081;42.706;23.306;2023-05-23T02:36:28;21.13;;;10.05;;
43933;SDS011;59081;42.706;23.306;2023-05-23T02:38:57;15.70;;;10.18;;
43933;SDS011;59081;42.706;23.306;2023-05-23T02:41:23;18.95;;;9.90;;
43933;SDS011;59081;42.706;23.306;2023-05-23T02:43:51;17.48;;;10.65;;
43933;SDS011;59081;42.706;23.306;2023-05-23T02:46:24;20.02;;;10.45;;
43933;SDS011;59081;42.706;23.306;2023-05-23T02:48:55;21.98;;;10.63;;
43933;SDS011;59081;42.706;23.306;2023-05-23T02:51:27;16.63;;;9.77;;
43933;SDS011;59081;42.706;23.306;2023-05-23T02:53:56;17.55;;;11.00;;
43933;SDS011;59081;42.706;23.306;2023-05-23T02:56:25;14.55;;;10.15;;
43933;SDS011;59081;42.706;23.306;2023-05-23T02:58:51;15.30;;;10.18;;
43933;SDS011;59081;42.706;23.306;2023-05-23T03:01:33;13.45;;;9.70;;
43933;SDS011;59081;42.706;23.306;2023-05-23T03:04:01;17.08;;;10.40;;
43933;SDS011;59081;42.706;23.306;2023-05-23T03:06:35;14.82;;;10.65;;
43933;SDS011;59081;42.706;23.306;2023-05-23T03:09:14;17.02;;;10.15;;
43933;SDS011;59081;42.706;23.306;2023-05-23T03:11:48;17.10;;;11.73;;
43933;SDS011;59081;42.706;23.306;2023-05-23T03:14:15;19.85;;;11.90;;
43933;SDS011;59081;42.706;23.306;2023-05-23T03:16:41;19.13;;;11.93;;
43933;SDS011;59081;42.706;23.306;2023-05-23T03:19:06;19.33;;;12.43;;
43933;SDS011;59081;42.706;23.306;2023-05-23T03:21:32;22.77;;;12.07;;
43933;SDS011;59081;42.706;23.306;2023-05-23T03:23:59;28.23;;;14.43;;
43933;SDS011;59081;42.706;23.306;2023-05-23T03:26:25;31.75;;;13.30;;
43933;SDS011;59081;42.706;23.306;2023-05-23T03:28:59;31.65;;;13.82;;
43933;SDS011;59081;42.706;23.306;2023-05-23T03:31:27;29.40;;;14.05;;
43933;SDS011;59081;42.706;23.306;2023-05-23T03:33:53;30.13;;;13.20;;
43933;SDS011;59081;42.706;23.306;2023-05-23T03:36:21;27.83;;;13.45;;
43933;SDS011;59081;42.706;23.306;2023-05-23T03:38:50;27.27;;;13.48;;
43933;SDS011;59081;42.706;23.306;2023-05-23T03:41:22;27.17;;;13.63;;
43933;SDS011;59081;42.706;23.306;2023-05-23T03:43:48;30.67;;;13.40;;
43933;SDS011;59081;42.706;23.306;2023-05-23T03:46:20;34.03;;;15.95;;
43933;SDS011;59081;42.706;23.306;2023-05-23T03:48:52;30.90;;;14.95;;
43933;SDS011;59081;42.706;23.306;2023-05-23T03:51:33;34.33;;;15.45;;
43933;SDS011;59081;42.706;23.306;2023-05-23T03:54:01;35.10;;;17.03;;
43933;SDS011;59081;42.706;23.306;2023-05-23T03:56:30;34.40;;;16.42;;
43933;SDS011;59081;42.706;23.306;2023-05-23T03:58:55;41.72;;;18.75;;
43933;SDS011;59081;42.706;23.306;2023-05-23T04:01:27;43.20;;;17.95;;
43933;SDS011;59081;42.706;23.306;2023-05-23T04:03:58;42.25;;;16.73;;
43933;SDS011;59081;42.706;23.306;2023-05-23T04:06:24;57.13;;;17.60;;
43933;SDS011;59081;42.706;23.306;2023-05-23T04:08:51;47.97;;;17.48;;
43933;SDS011;59081;42.706;23.306;2023-05-23T04:11:20;61.47;;;15.57;;
43933;SDS011;59081;42.706;23.306;2023-05-23T04:13:56;57.97;;;19.08;;
43933;SDS011;59081;42.706;23.306;2023-05-23T04:16:27;88.35;;;18.95;;
43933;SDS011;59081;42.706;23.306;2023-05-23T04:18:52;48.30;;;17.08;;
43933;SDS011;59081;42.706;23.306;2023-05-23T04:21:20;38.25;;;15.40;;
43933;SDS011;59081;42.706;23.306;2023-05-23T04:23:46;31.52;;;15.00;;
43933;SDS011;59081;42.706;23.306;2023-05-23T04:26:20;31.88;;;13.68;;
43933;SDS011;59081;42.706;23.306;2023-05-23T04:28:46;39.13;;;13.35;;
43933;SDS011;59081;42.706;23.306;2023-05-23T04:31:18;33.60;;;13.57;;
43933;SDS011;59081;42.706;23.306;2023-05-23T04:33:46;21.83;;;12.20;;
43933;SDS011;59081;42.706;23.306;2023-05-23T04:36:13;24.52;;;11.27;;
43933;SDS011;59081;42.706;23.306;2023-05-23T04:38:39;20.77;;;11.95;;
43933;SDS011;59081;42.706;23.306;2023-05-23T04:41:08;24.05;;;12.23;;
43933;SDS011;59081;42.706;23.306;2023-05-23T04:43:40;23.23;;;10.93;;
43933;SDS011;59081;42.706;23.306;2023-05-23T04:46:10;17.70;;;11.55;;
43933;SDS011;59081;42.706;23.306;2023-05-23T04:48:38;15.93;;;10.95;;
43933;SDS011;59081;42.706;23.306;2023-05-23T04:51:11;15.63;;;10.18;;
43933;SDS011;59081;42.706;23.306;2023-05-23T04:53:42;17.13;;;10.52;;
43933;SDS011;59081;42.706;23.306;2023-05-23T04:56:10;17.05;;;9.50;;
43933;SDS011;59081;42.706;23.306;2023-05-23T04:58:42;16.27;;;9.43;;
43933;SDS011;59081;42.706;23.306;2023-05-23T05:01:09;17.95;;;10.30;;
43933;SDS011;59081;42.706;23.306;2023-05-23T05:03:38;14.73;;;9.32;;
43933;SDS011;59081;42.706;23.306;2023-05-23T05:06:09;21.85;;;9.90;;
43933;SDS011;59081;42.706;23.306;2023-05-23T05:08:38;16.17;;;10.00;;
43933;SDS011;59081;42.706;23.306;2023-05-23T05:11:08;18.50;;;9.63;;
43933;SDS011;59081;42.706;23.306;2023-05-23T05:13:36;18.88;;;9.30;;
43933;SDS011;59081;42.706;23.306;2023-05-23T05:16:02;14.30;;;8.85;;
43933;SDS011;59081;42.706;23.306;2023-05-23T05:18:31;16.85;;;9.50;;
43933;SDS011;59081;42.706;23.306;2023-05-23T05:20:57;12.32;;;9.27;;
43933;SDS011;59081;42.706;23.306;2023-05-23T05:23:25;15.90;;;9.85;;
43933;SDS011;59081;42.706;23.306;2023-05-23T05:25:59;13.77;;;9.00;;
43933;SDS011;59081;42.706;23.306;2023-05-23T05:28:31;15.43;;;9.98;;
43933;SDS011;59081;42.706;23.306;2023-05-23T05:30:59;17.00;;;10.60;;
43933;SDS011;59081;42.706;23.306;2023-05-23T05:33:29;17.35;;;10.45;;
43933;SDS011;59081;42.706;23.306;2023-05-23T05:36:00;23.52;;;11.00;;
43933;SDS011;59081;42.706;23.306;2023-05-23T05:38:27;17.95;;;11.88;;
43933;SDS011;59081;42.706;23.306;2023-05-23T05:41:00;19.95;;;13.10;;
43933;SDS011;59081;42.706;23.306;2023-05-23T05:43:26;17.20;;;11.70;;
43933;SDS011;59081;42.706;23.306;2023-05-23T05:45:52;17.83;;;12.13;;
43933;SDS011;59081;42.706;23.306;2023-05-23T05:48:18;25.27;;;12.60;;
43933;SDS011;59081;42.706;23.306;2023-05-23T05:50:43;15.98;;;10.52;;
43933;SDS011;59081;42.706;23.306;2023-05-23T05:53:14;18.08;;;11.60;;
43933;SDS011;59081;42.706;23.306;2023-05-23T05:55:43;19.98;;;12.77;;
43933;SDS011;59081;42.706;23.306;2023-05-23T05:58:15;18.02;;;12.60;;
43933;SDS011;59081;42.706;23.306;2023-05-23T06:00:46;20.10;;;13.27;;
43933;SDS011;59081;42.706;23.306;2023-05-23T06:03:13;19.63;;;13.52;;
43933;SDS011;59081;42.706;23.306;2023-05-23T06:05:48;25.67;;;14.25;;
43933;SDS011;59081;42.706;23.306;2023-05-23T06:08:23;22.60;;;13.35;;
43933;SDS011;59081;42.706;23.306;2023-05-23T06:10:52;18.55;;;13.32;;
43933;SDS011;59081;42.706;23.306;2023-05-23T06:13:21;24.45;;;14.25;;
43933;SDS011;59081;42.706;23.306;2023-05-23T06:15:49;25.42;;;14.80;;
43933;SDS011;59081;42.706;23.306;2023-05-23T06:18:15;23.30;;;14.48;;
43933;SDS011;59081;42.706;23.306;2023-05-23T06:20:51;20.77;;;14.48;;
43933;SDS011;59081;42.706;23.306;2023-05-23T06:23:27;23.88;;;15.13;;
43933;SDS011;59081;42.706;23.306;2023-05-23T06:28:27;21.90;;;13.80;;
43933;SDS011;59081;42.706;23.306;2023-05-23T06:30:55;20.35;;;14.13;;
43933;SDS011;59081;42.706;23.306;2023-05-23T06:33:29;21.35;;;13.90;;
43933;SDS011;59081;42.706;23.306;2023-05-23T06:36:03;19.92;;;13.45;;
43933;SDS011;59081;42.706;23.306;2023-05-23T06:41:02;21.60;;;12.95;;
43933;SDS011;59081;42.706;23.306;2023-05-23T06:43:41;21.40;;;14.50;;
43933;SDS011;59081;42.706;23.306;2023-05-23T06:46:12;25.02;;;13.32;;
43933;SDS011;59081;42.706;23.306;2023-05-23T06:48:38;23.33;;;15.27;;
43933;SDS011;59081;42.706;23.306;2023-05-23T06:51:06;27.77;;;13.55;;
43933;SDS011;59081;42.706;23.306;2023-05-23T06:53:35;22.77;;;12.35;;
43933;SDS011;59081;42.706;23.306;2023-05-23T06:56:01;20.85;;;12.73;;
43933;SDS011;59081;42.706;23.306;2023-05-23T06:58:40;30.05;;;14.82;;
43933;SDS011;59081;42.706;23.306;2023-05-23T07:01:06;21.20;;;15.50;;
43933;SDS011;59081;42.706;23.306;2023-05-23T07:03:32;22.10;;;13.50;;
43933;SDS011;59081;42.706;23.306;2023-05-23T07:05:57;23.48;;;13.60;;
43933;SDS011;59081;42.706;23.306;2023-05-23T07:08:25;20.50;;;12.65;;
43933;SDS011;59081;42.706;23.306;2023-05-23T07:10:51;23.98;;;14.52;;
43933;SDS011;59081;42.706;23.306;2023-05-23T07:13:24;24.90;;;16.05;;
43933;SDS011;59081;42.706;23.306;2023-05-23T07:15:50;28.92;;;16.55;;
43933;SDS011;59081;42.706;23.306;2023-05-23T07:18:16;25.65;;;17.45;;
43933;SDS011;59081;42.706;23.306;2023-05-23T07:20:42;26.30;;;16.58;;
43933;SDS011;59081;42.706;23.306;2023-05-23T07:23:08;28.35;;;17.30;;
43933;SDS011;59081;42.706;23.306;2023-05-23T07:25:34;33.75;;;17.55;;
43933;SDS011;59081;42.706;23.306;2023-05-23T07:28:00;25.05;;;17.73;;
43933;SDS011;59081;42.706;23.306;2023-05-23T07:30:26;34.10;;;18.92;;
43933;SDS011;59081;42.706;23.306;2023-05-23T07:32:54;34.25;;;19.88;;
43933;SDS011;59081;42.706;23.306;2023-05-23T07:35:20;36.47;;;20.65;;
43933;SDS011;59081;42.706;23.306;2023-05-23T07:37:50;37.28;;;20.65;;
43933;SDS011;59081;42.706;23.306;2023-05-23T07:40:22;32.00;;;19.77;;
43933;SDS011;59081;42.706;23.306;2023-05-23T07:42:51;34.58;;;19.17;;
43933;SDS011;59081;42.706;23.306;2023-05-23T07:45:18;37.30;;;22.48;;
43933;SDS011;59081;42.706;23.306;2023-05-23T07:47:44;35.25;;;21.58;;
43933;SDS011;59081;42.706;23.306;2023-05-23T07:50:09;37.92;;;22.30;;
43933;SDS011;59081;42.706;23.306;2023-05-23T07:52:38;40.75;;;22.95;;
43933;SDS011;59081;42.706;23.306;2023-05-23T07:55:03;40.70;;;24.17;;
43933;SDS011;59081;42.706;23.306;2023-05-23T07:57:29;41.70;;;24.23;;
43933;SDS011;59081;42.706;23.306;2023-05-23T07:59:55;42.10;;;22.67;;
43933;SDS011;59081;42.706;23.306;2023-05-23T08:02:21;40.63;;;22.88;;
43933;SDS011;59081;42.706;23.306;2023-05-23T08:04:46;35.15;;;21.25;;
43933;SDS011;59081;42.706;23.306;2023-05-23T08:07:12;50.22;;;24.90;;
43933;SDS011;59081;42.706;23.306;2023-05-23T08:09:38;46.00;;;23.73;;
43933;SDS011;59081;42.706;23.306;2023-05-23T08:12:05;47.97;;;25.02;;
43933;SDS011;59081;42.706;23.306;2023-05-23T08:14:33;40.10;;;24.35;;
43933;SDS011;59081;42.706;23.306;2023-05-23T08:16:59;42.85;;;24.77;;
43933;SDS011;59081;42.706;23.306;2023-05-23T08:19:25;42.30;;;24.23;;
43933;SDS011;59081;42.706;23.306;2023-05-23T08:21:50;41.25;;;23.17;;
43933;SDS011;59081;42.706;23.306;2023-05-23T08:24:22;36.90;;;22.88;;
43933;SDS011;59081;42.706;23.306;2023-05-23T08:26:48;38.28;;;22.38;;
43933;SDS011;59081;42.706;23.306;2023-05-23T08:29:17;35.05;;;21.83;;
43933;SDS011;59081;42.706;23.306;2023-05-23T08:31:43;32.40;;;19.98;;
43933;SDS011;59081;42.706;23.306;2023-05-23T08:34:11;36.70;;;20.52;;
43933;SDS011;59081;42.706;23.306;2023-05-23T08:36:38;29.85;;;19.02;;
43933;SDS011;59081;42.706;23.306;2023-05-23T08:39:04;31.90;;;18.60;;
43933;SDS011;59081;42.706;23.306;2023-05-23T08:41:29;27.95;;;18.50;;
43933;SDS011;59081;42.706;23.306;2023-05-23T08:43:58;31.02;;;17.77;;
43933;SDS011;59081;42.706;23.306;2023-05-23T08:46:24;30.63;;;18.85;;
43933;SDS011;59081;42.706;23.306;2023-05-23T08:48:51;23.95;;;16.17;;
43933;SDS011;59081;42.706;23.306;2023-05-23T08:51:22;25.73;;;14.32;;
43933;SDS011;59081;42.706;23.306;2023-05-23T08:53:50;28.20;;;15.43;;
43933;SDS011;59081;42.706;23.306;2023-05-23T08:56:17;22.38;;;14.00;;
43933;SDS011;59081;42.706;23.306;2023-05-23T08:58:43;24.33;;;13.20;;
43933;SDS011;59081;42.706;23.306;2023-05-23T09:01:11;28.52;;;14.13;;
43933;SDS011;59081;42.706;23.306;2023-05-23T09:03:39;19.35;;;13.02;;
43933;SDS011;59081;42.706;23.306;2023-05-23T09:06:08;21.73;;;12.38;;
43933;SDS011;59081;42.706;23.306;2023-05-23T09:08:35;14.68;;;10.70;;
43933;SDS011;59081;42.706;23.306;2023-05-23T09:11:01;17.38;;;10.27;;
43933;SDS011;59081;42.706;23.306;2023-05-23T09:13:32;18.75;;;10.63;;
43933;SDS011;59081;42.706;23.306;2023-05-23T09:18:27;12.00;;;8.60;;
43933;SDS011;59081;42.706;23.306;2023-05-23T09:20:58;11.05;;;6.80;;
43933;SDS011;59081;42.706;23.306;2023-05-23T09:23:24;10.65;;;6.82;;
43933;SDS011;59081;42.706;23.306;2023-05-23T09:25:49;8.50;;;5.95;;
43933;SDS011;59081;42.706;23.306;2023-05-23T09:28:15;12.48;;;6.72;;
43933;SDS011;59081;42.706;23.306;2023-05-23T09:30:40;15.05;;;7.22;;
43933;SDS011;59081;42.706;23.306;2023-05-23T09:33:06;10.15;;;5.78;;
43933;SDS011;59081;42.706;23.306;2023-05-23T09:35:38;8.77;;;4.37;;
43933;SDS011;59081;42.706;23.306;2023-05-23T09:38:08;9.27;;;4.63;;
43933;SDS011;59081;42.706;23.306;2023-05-23T09:40:34;4.45;;;3.10;;
43933;SDS011;59081;42.706;23.306;2023-05-23T09:43:03;9.63;;;5.07;;
43933;SDS011;59081;42.706;23.306;2023-05-23T09:45:31;10.43;;;3.60;;
43933;SDS011;59081;42.706;23.306;2023-05-23T09:47:58;7.85;;;5.13;;
43933;SDS011;59081;42.706;23.306;2023-05-23T09:50:25;6.60;;;4.10;;
43933;SDS011;59081;42.706;23.306;2023-05-23T09:52:56;5.35;;;3.67;;
43933;SDS011;59081;42.706;23.306;2023-05-23T09:55:22;7.88;;;3.88;;
43933;SDS011;59081;42.706;23.306;2023-05-23T09:57:48;4.30;;;3.10;;
43933;SDS011;59081;42.706;23.306;2023-05-23T10:00:24;9.10;;;3.80;;
43933;SDS011;59081;42.706;23.306;2023-05-23T10:03:12;7.57;;;3.20;;
43933;SDS011;59081;42.706;23.306;2023-05-23T10:05:49;4.93;;;3.65;;
43933;SDS011;59081;42.706;23.306;2023-05-23T10:13:38;7.63;;;3.58;;
43933;SDS011;59081;42.706;23.306;2023-05-23T10:18:38;3.97;;;3.13;;
43933;SDS011;59081;42.706;23.306;2023-05-23T10:21:18;4.88;;;3.55;;
43933;SDS011;59081;42.706;23.306;2023-05-23T10:23:48;7.60;;;3.28;;
43933;SDS011;59081;42.706;23.306;2023-05-23T10:26:15;6.32;;;2.80;;
43933;SDS011;59081;42.706;23.306;2023-05-23T10:28:41;6.18;;;2.92;;
43933;SDS011;59081;42.706;23.306;2023-05-23T10:31:08;11.05;;;3.40;;
43933;SDS011;59081;42.706;23.306;2023-05-23T10:33:40;6.97;;;3.45;;
43933;SDS011;59081;42.706;23.306;2023-05-23T10:36:13;2.17;;;1.80;;
43933;SDS011;59081;42.706;23.306;2023-05-23T10:41:55;8.05;;;3.95;;
43933;SDS011;59081;42.706;23.306;2023-05-23T10:46:55;5.28;;;2.92;;
43933;SDS011;59081;42.706;23.306;2023-05-23T10:49:44;3.92;;;2.30;;
43933;SDS011;59081;42.706;23.306;2023-05-23T10:52:17;6.05;;;3.10;;
43933;SDS011;59081;42.706;23.306;2023-05-23T10:54:50;5.63;;;2.55;;
43933;SDS011;59081;42.706;23.306;2023-05-23T10:57:21;6.65;;;3.33;;
43933;SDS011;59081;42.706;23.306;2023-05-23T10:59:51;9.75;;;3.20;;
43933;SDS011;59081;42.706;23.306;2023-05-23T11:02:24;4.40;;;2.80;;
43933;SDS011;59081;42.706;23.306;2023-05-23T11:07:46;4.00;;;3.15;;
43933;SDS011;59081;42.706;23.306;2023-05-23T11:10:32;3.00;;;1.85;;
43933;SDS011;59081;42.706;23.306;2023-05-23T11:13:04;6.13;;;2.60;;
43933;SDS011;59081;42.706;23.306;2023-05-23T11:15:40;11.77;;;3.33;;
43933;SDS011;59081;42.706;23.306;2023-05-23T11:18:06;7.78;;;3.70;;
43933;SDS011;59081;42.706;23.306;2023-05-23T11:20:32;3.15;;;2.40;;
43933;SDS011;59081;42.706;23.306;2023-05-23T11:23:02;6.03;;;2.65;;
43933;SDS011;59081;42.706;23.306;2023-05-23T11:25:42;8.95;;;3.08;;
43933;SDS011;59081;42.706;23.306;2023-05-23T11:28:15;5.38;;;2.63;;
43933;SDS011;59081;42.706;23.306;2023-05-23T11:30:41;7.15;;;2.78;;
43933;SDS011;59081;42.706;23.306;2023-05-23T11:33:08;6.20;;;3.10;;
43933;SDS011;59081;42.706;23.306;2023-05-23T11:35:38;3.75;;;2.47;;
43933;SDS011;59081;42.706;23.306;2023-05-23T11:38:07;7.32;;;2.88;;
43933;SDS011;59081;42.706;23.306;2023-05-23T11:40:38;5.05;;;2.97;;
43933;SDS011;59081;42.706;23.306;2023-05-23T11:43:05;3.80;;;2.40;;
43933;SDS011;59081;42.706;23.306;2023-05-23T11:48:08;6.28;;;4.25;;
43933;SDS011;59081;42.706;23.306;2023-05-23T11:50:42;4.85;;;3.22;;
43933;SDS011;59081;42.706;23.306;2023-05-23T11:53:11;6.13;;;3.20;;
43933;SDS011;59081;42.706;23.306;2023-05-23T11:55:46;5.68;;;3.20;;
43933;SDS011;59081;42.706;23.306;2023-05-23T11:58:13;7.07;;;2.80;;
43933;SDS011;59081;42.706;23.306;2023-05-23T12:00:42;4.72;;;3.08;;
43933;SDS011;59081;42.706;23.306;2023-05-23T12:03:10;3.20;;;2.70;;
43933;SDS011;59081;42.706;23.306;2023-05-23T12:05:36;3.50;;;2.55;;
43933;SDS011;59081;42.706;23.306;2023-05-23T12:08:01;4.40;;;2.58;;
43933;SDS011;59081;42.706;23.306;2023-05-23T12:10:27;5.00;;;2.50;;
43933;SDS011;59081;42.706;23.306;2023-05-23T12:12:53;5.13;;;2.80;;
43933;SDS011;59081;42.706;23.306;2023-05-23T12:15:23;6.05;;;2.83;;
43933;SDS011;59081;42.706;23.306;2023-05-23T12:17:53;7.72;;;3.00;;
43933;SDS011;59081;42.706;23.306;2023-05-23T12:20:20;5.15;;;2.72;;
43933;SDS011;59081;42.706;23.306;2023-05-23T12:22:49;3.67;;;2.38;;
43933;SDS011;59081;42.706;23.306;2023-05-23T12:25:14;3.92;;;2.92;;
43933;SDS011;59081;42.706;23.306;2023-05-23T12:27:42;5.00;;;3.10;;
43933;SDS011;59081;42.706;23.306;2023-05-23T12:30:08;6.07;;;2.30;;
43933;SDS011;59081;42.706;23.306;2023-05-23T12:32:38;5.20;;;2.63;;
43933;SDS011;59081;42.706;23.306;2023-05-23T12:35:05;8.60;;;2.97;;
43933;SDS011;59081;42.706;23.306;2023-05-23T12:37:31;10.73;;;3.05;;
43933;SDS011;59081;42.706;23.306;2023-05-23T12:39:57;9.32;;;3.33;;
43933;SDS011;59081;42.706;23.306;2023-05-23T12:42:22;4.95;;;2.50;;
43933;SDS011;59081;42.706;23.306;2023-05-23T12:44:52;4.90;;;2.67;;
43933;SDS011;59081;42.706;23.306;2023-05-23T12:47:17;9.18;;;3.10;;
43933;SDS011;59081;42.706;23.306;2023-05-23T12:49:43;5.53;;;2.00;;
43933;SDS011;59081;42.706;23.306;2023-05-23T12:52:10;3.25;;;2.42;;
43933;SDS011;59081;42.706;23.306;2023-05-23T12:54:36;4.15;;;2.45;;
43933;SDS011;59081;42.706;23.306;2023-05-23T12:57:01;6.32;;;2.90;;
43933;SDS011;59081;42.706;23.306;2023-05-23T12:59:26;3.95;;;2.25;;
43933;SDS011;59081;42.706;23.306;2023-05-23T13:01:52;4.95;;;2.70;;
43933;SDS011;59081;42.706;23.306;2023-05-23T13:04:18;5.20;;;2.67;;
43933;SDS011;59081;42.706;23.306;2023-05-23T13:06:43;4.88;;;2.72;;
43933;SDS011;59081;42.706;23.306;2023-05-23T13:09:09;4.63;;;2.70;;
43933;SDS011;59081;42.706;23.306;2023-05-23T13:11:35;5.82;;;2.13;;
43933;SDS011;59081;42.706;23.306;2023-05-23T13:14:01;4.32;;;2.35;;
43933;SDS011;59081;42.706;23.306;2023-05-23T13:16:27;4.18;;;2.55;;
43933;SDS011;59081;42.706;23.306;2023-05-23T13:18:53;4.63;;;2.33;;
43933;SDS011;59081;42.706;23.306;2023-05-23T13:21:18;7.88;;;2.47;;
43933;SDS011;59081;42.706;23.306;2023-05-23T13:23:44;4.75;;;2.38;;
43933;SDS011;59081;42.706;23.306;2023-05-23T13:26:09;5.32;;;3.00;;
43933;SDS011;59081;42.706;23.306;2023-05-23T13:28:35;5.50;;;2.97;;
43933;SDS011;59081;42.706;23.306;2023-05-23T13:31:00;3.30;;;2.50;;
43933;SDS011;59081;42.706;23.306;2023-05-23T13:33:27;4.78;;;2.58;;
43933;SDS011;59081;42.706;23.306;2023-05-23T13:35:52;3.15;;;2.42;;
43933;SDS011;59081;42.706;23.306;2023-05-23T13:38:18;6.95;;;2.95;;
43933;SDS011;59081;42.706;23.306;2023-05-23T13:40:44;4.75;;;2.50;;
43933;SDS011;59081;42.706;23.306;2023-05-23T13:43:10;6.05;;;2.70;;
43933;SDS011;59081;42.706;23.306;2023-05-23T13:45:35;9.52;;;2.25;;
43933;SDS011;59081;42.706;23.306;2023-05-23T13:48:01;7.28;;;2.80;;
43933;SDS011;59081;42.706;23.306;2023-05-23T13:50:26;6.47;;;2.30;;
43933;SDS011;59081;42.706;23.306;2023-05-23T13:52:52;3.85;;;2.40;;
43933;SDS011;59081;42.706;23.306;2023-05-23T13:55:17;3.85;;;2.38;;
43933;SDS011;59081;42.706;23.306;2023-05-23T13:57:43;4.45;;;2.33;;
43933;SDS011;59081;42.706;23.306;2023-05-23T14:00:09;7.07;;;2.50;;
43933;SDS011;59081;42.706;23.306;2023-05-23T14:02:35;4.20;;;2.13;;
43933;SDS011;59081;42.706;23.306;2023-05-23T14:05:00;4.18;;;2.13;;
43933;SDS011;59081;42.706;23.306;2023-05-23T14:07:26;6.78;;;2.50;;
43933;SDS011;59081;42.706;23.306;2023-05-23T14:09:52;4.18;;;2.58;;
43933;SDS011;59081;42.706;23.306;2023-05-23T14:12:17;4.13;;;2.63;;
43933;SDS011;59081;42.706;23.306;2023-05-23T14:14:43;4.50;;;2.67;;
43933;SDS011;59081;42.706;23.306;2023-05-23T14:17:12;5.88;;;3.38;;
43933;SDS011;59081;42.706;23.306;2023-05-23T14:19:41;5.55;;;2.75;;
43933;SDS011;59081;42.706;23.306;2023-05-23T14:22:07;7.35;;;2.88;;
43933;SDS011;59081;42.706;23.306;2023-05-23T14:24:32;5.28;;;3.03;;
43933;SDS011;59081;42.706;23.306;2023-05-23T14:26:58;6.57;;;3.55;;
43933;SDS011;59081;42.706;23.306;2023-05-23T14:29:23;5.50;;;3.20;;
43933;SDS011;59081;42.706;23.306;2023-05-23T14:31:49;6.45;;;3.15;;
43933;SDS011;59081;42.706;23.306;2023-05-23T14:34:15;6.50;;;2.97;;
43933;SDS011;59081;42.706;23.306;2023-05-23T14:36:40;4.90;;;3.10;;
43933;SDS011;59081;42.706;23.306;2023-05-23T14:39:06;8.32;;;2.95;;
43933;SDS011;59081;42.706;23.306;2023-05-23T14:41:32;4.40;;;2.80;;
43933;SDS011;59081;42.706;23.306;2023-05-23T14:43:58;6.32;;;3.53;;
43933;SDS011;59081;42.706;23.306;2023-05-23T14:46:23;3.78;;;2.58;;
43933;SDS011;59081;42.706;23.306;2023-05-23T14:48:49;6.75;;;3.05;;
43933;SDS011;59081;42.706;23.306;2023-05-23T14:51:14;5.72;;;2.78;;
43933;SDS011;59081;42.706;23.306;2023-05-23T14:53:40;9.07;;;3.00;;
43933;SDS011;59081;42.706;23.306;2023-05-23T14:56:05;5.80;;;2.90;;
43933;SDS011;59081;42.706;23.306;2023-05-23T14:58:31;5.18;;;2.97;;
43933;SDS011;59081;42.706;23.306;2023-05-23T15:00:56;3.15;;;2.55;;
43933;SDS011;59081;42.706;23.306;2023-05-23T15:03:22;4.38;;;2.47;;
43933;SDS011;59081;42.706;23.306;2023-05-23T15:05:47;8.48;;;4.43;;
43933;SDS011;59081;42.706;23.306;2023-05-23T15:08:14;3.97;;;2.63;;